Time;durP1;ratioP1;P1;durP2;ratioP2;P2;SDS_P1;SDS_P2;PMS_P1;PMS_P2;Temp;Humidity;BMP_temperature;BMP_pressure;BME280_temperature;BME280_humidity;BME280_pressure;Samples;Min_cycle;Max_cycle;Signal;HPM_P1;HPM_P2
2023/03/13 00:01:00;;;;;;;19.33;3.67;;;;;;;11.61;66.76;99973.00;5076629;28;20204;-72
2023/03/13 00:03:28;;;;;;;9.20;2.07;;;;;;;11.59;66.52;99969.72;5076677;28;20628;-72
2023/03/13 00:05:57;;;;;;;17.00;2.70;;;;;;;11.67;66.25;99970.53;5080145;28;20215;-74
2023/03/13 00:08:25;;;;;;;14.17;3.30;;;;;;;11.68;66.25;99969.53;5079732;28;20235;-72
2023/03/13 00:10:53;;;;;;;21.07;3.57;;;;;;;11.72;65.95;99969.19;5079489;28;20214;-73
2023/03/13 00:13:20;;;;;;;15.30;2.53;;;;;;;11.69;66.03;99952.63;5078992;28;20262;-74
2023/03/13 00:15:48;;;;;;;14.77;3.73;;;;;;;11.74;65.73;99953.91;5078363;28;20207;-72
2023/03/13 00:18:17;;;;;;;12.30;2.47;;;;;;;11.73;66.03;99957.56;5079102;28;20217;-70
2023/03/13 00:20:47;;;;;;;14.40;2.57;;;;;;;11.79;65.89;99946.28;5079154;28;20218;-72
2023/03/13 00:23:15;;;;;;;13.90;2.90;;;;;;;11.75;66.14;99940.50;5077070;28;20234;-72
2023/03/13 00:25:43;;;;;;;11.87;2.80;;;;;;;11.72;66.17;99932.00;5077925;28;20207;-72
2023/03/13 00:28:10;;;;;;;16.10;2.80;;;;;;;11.76;65.99;99930.72;5079782;28;20688;-74
2023/03/13 00:30:38;;;;;;;12.53;2.70;;;;;;;11.80;66.06;99926.72;5077865;28;20203;-73
2023/03/13 00:33:06;;;;;;;12.67;3.00;;;;;;;11.87;65.76;99915.25;5080035;28;20218;-71
2023/03/13 00:35:35;;;;;;;14.77;3.20;;;;;;;11.89;65.72;99907.09;5080350;28;20346;-74
2023/03/13 00:38:03;;;;;;;12.37;2.97;;;;;;;11.86;65.81;99902.97;5079769;28;20860;-73
2023/03/13 00:40:30;;;;;;;13.87;3.40;;;;;;;11.81;65.89;99901.81;5074373;28;20214;-71
2023/03/13 00:42:58;;;;;;;12.80;2.63;;;;;;;11.80;66.22;99894.84;5079273;28;20212;-73
2023/03/13 00:45:26;;;;;;;14.87;2.70;;;;;;;11.83;66.27;99889.19;5080686;28;20204;-73
2023/03/13 00:47:54;;;;;;;15.40;2.33;;;;;;;11.85;66.08;99893.34;5079619;28;20279;-72
2023/03/13 00:50:22;;;;;;;12.30;2.60;;;;;;;11.93;65.69;99881.84;5079390;28;20218;-74
2023/03/13 00:52:51;;;;;;;17.13;2.77;;;;;;;11.96;65.72;99878.88;5081026;28;20217;-70
2023/03/13 00:55:18;;;;;;;13.13;2.60;;;;;;;11.97;65.88;99872.53;5080653;28;20225;-73
2023/03/13 00:57:46;;;;;;;14.50;2.47;;;;;;;11.98;65.78;99877.69;5080899;28;20581;-73
2023/03/13 01:00:15;;;;;;;13.17;2.87;;;;;;;11.98;65.84;99868.88;5081574;28;20215;-74
2023/03/13 01:02:43;;;;;;;18.47;3.17;;;;;;;12.04;65.90;99870.88;5080016;28;20345;-71
2023/03/13 01:05:12;;;;;;;17.60;2.63;;;;;;;12.03;66.04;99864.72;5081501;28;20209;-71
2023/03/13 01:07:39;;;;;;;11.80;2.97;;;;;;;12.05;65.95;99856.56;5079817;28;20242;-73
2023/03/13 01:10:09;;;;;;;14.73;3.10;;;;;;;12.07;65.89;99857.22;5079332;28;20219;-73
2023/03/13 01:12:37;;;;;;;9.40;2.10;;;;;;;12.10;65.89;99848.09;5080419;28;20205;-72
2023/03/13 01:15:06;;;;;;;15.73;2.80;;;;;;;12.11;65.90;99847.09;5082816;28;20545;-73
2023/03/13 01:17:33;;;;;;;15.87;2.87;;;;;;;12.09;65.91;99844.59;5079840;28;20210;-72
2023/03/13 01:20:01;;;;;;;11.47;2.47;;;;;;;12.07;65.99;99834.13;5079203;28;20213;-73
2023/03/13 01:22:29;;;;;;;12.73;2.43;;;;;;;12.07;66.15;99833.31;5080466;28;20229;-73
2023/03/13 01:24:57;;;;;;;10.93;2.37;;;;;;;12.04;66.22;99828.34;5077462;28;20211;-72
2023/03/13 01:27:26;;;;;;;13.97;2.23;;;;;;;12.07;66.37;99817.34;5079040;28;21034;-72
2023/03/13 01:29:53;;;;;;;15.43;3.43;;;;;;;12.16;65.94;99820.81;5077708;28;20213;-72
2023/03/13 01:32:21;;;;;;;10.30;2.30;;;;;;;12.14;66.41;99818.31;5080297;28;20237;-71
2023/03/13 01:34:49;;;;;;;9.50;2.30;;;;;;;12.12;65.99;99814.19;5081122;28;20203;-73
2023/03/13 01:37:16;;;;;;;13.90;2.70;;;;;;;12.07;66.25;99806.72;5079827;28;20336;-72
2023/03/13 01:39:44;;;;;;;10.53;2.50;;;;;;;12.08;66.13;99800.41;5081727;28;20199;-72
2023/03/13 01:42:13;;;;;;;11.07;2.30;;;;;;;12.01;66.69;99796.81;5078544;28;20206;-73
2023/03/13 01:44:53;;;;;;;10.57;2.50;;;;;;;11.98;66.66;99797.13;5078687;28;20213;-72
2023/03/13 01:47:21;;;;;;;14.50;3.13;;;;;;;11.94;66.95;99795.84;5078359;28;20221;-72
2023/03/13 01:49:51;;;;;;;11.70;2.30;;;;;;;11.93;66.91;99786.22;5076955;28;20230;-73
2023/03/13 01:52:22;;;;;;;17.20;3.17;;;;;;;11.91;67.26;99782.91;5075687;28;20226;-72
2023/03/13 01:54:54;;;;;;;6.50;1.77;;;;;;;11.92;66.95;99776.59;5081072;28;20209;-75
2023/03/13 01:57:25;;;;;;;11.17;2.73;;;;;;;11.85;67.38;99781.78;5077353;28;20244;-71
2023/03/13 01:59:58;;;;;;;13.17;3.17;;;;;;;11.80;67.49;99780.63;5077189;28;20791;-72
2023/03/13 02:02:27;;;;;;;9.90;2.13;;;;;;;11.77;67.46;99779.16;5075847;28;20198;-72
2023/03/13 02:04:59;;;;;;;14.73;2.97;;;;;;;11.82;67.17;99770.66;5078046;28;20209;-72
2023/03/13 02:07:32;;;;;;;11.73;2.57;;;;;;;11.85;66.83;99772.97;5075173;28;20311;-73
2023/03/13 02:10:02;;;;;;;14.97;3.03;;;;;;;11.82;67.15;99766.16;5076194;28;20238;-73
2023/03/13 02:12:32;;;;;;;10.93;2.07;;;;;;;11.81;67.18;99763.69;5076791;28;20209;-72
2023/03/13 02:15:05;;;;;;;14.87;3.00;;;;;;;11.80;66.89;99756.72;5077213;28;20210;-72
2023/03/13 02:17:34;;;;;;;13.17;2.60;;;;;;;11.87;66.49;99747.91;5079637;28;20206;-73
2023/03/13 02:20:03;;;;;;;10.80;2.53;;;;;;;11.80;66.78;99743.44;5076676;28;20199;-73
2023/03/13 02:22:37;;;;;;;14.70;3.03;;;;;;;11.84;66.58;99742.09;5081060;28;20243;-71
2023/03/13 02:25:12;;;;;;;11.57;2.83;;;;;;;11.87;66.51;99731.13;5080794;28;20205;-73
2023/03/13 02:27:43;;;;;;;11.77;2.40;;;;;;;11.83;66.84;99729.81;5082311;28;20298;-71
2023/03/13 02:30:14;;;;;;;13.97;2.97;;;;;;;11.85;66.74;99730.47;5082409;28;20226;-72
2023/03/13 02:32:44;;;;;;;13.90;2.87;;;;;;;11.85;67.04;99727.81;5081930;28;20293;-72
2023/03/13 02:35:14;;;;;;;13.83;2.53;;;;;;;11.83;67.40;99724.50;5079883;28;20227;-71
2023/03/13 02:37:44;;;;;;;11.03;2.57;;;;;;;11.79;68.04;99720.53;5080751;28;20311;-72
2023/03/13 02:40:15;;;;;;;7.63;2.23;;;;;;;11.76;68.49;99710.25;5081652;28;20276;-72
2023/03/13 02:42:45;;;;;;;12.40;2.60;;;;;;;11.78;68.58;99701.13;5081109;28;20303;-72
2023/03/13 02:45:14;;;;;;;9.97;2.70;;;;;;;11.74;68.97;99698.94;5080878;28;20218;-73
2023/03/13 02:47:42;;;;;;;12.50;2.50;;;;;;;11.67;69.52;99688.19;5081632;28;20302;-73
2023/03/13 02:50:11;;;;;;;10.97;2.83;;;;;;;11.65;69.66;99685.72;5083192;28;20234;-72
2023/03/13 02:52:43;;;;;;;11.63;2.50;;;;;;;11.61;70.13;99683.56;5082463;28;21223;-73
2023/03/13 02:55:16;;;;;;;9.37;2.40;;;;;;;11.60;70.29;99682.75;5080840;28;20613;-73
2023/03/13 02:57:45;;;;;;;9.67;2.23;;;;;;;11.57;70.48;99675.13;5080168;28;20728;-74
2023/03/13 03:00:16;;;;;;;13.47;2.70;;;;;;;11.58;70.61;99668.00;5081541;28;20608;-72
2023/03/13 03:02:43;;;;;;;9.17;2.50;;;;;;;11.60;70.42;99672.16;5083073;28;20208;-71
2023/03/13 03:05:12;;;;;;;11.83;2.77;;;;;;;11.66;70.73;99670.63;5081556;28;21942;-72
2023/03/13 03:07:39;;;;;;;10.23;2.57;;;;;;;11.70;70.57;99671.91;5080901;28;20286;-70
2023/03/13 03:10:08;;;;;;;11.37;2.10;;;;;;;11.75;70.31;99660.81;5077955;28;20598;-71
2023/03/13 03:12:36;;;;;;;9.10;1.90;;;;;;;11.79;70.49;99664.75;5080123;28;20209;-70
2023/03/13 03:15:06;;;;;;;13.50;2.67;;;;;;;11.80;70.42;99658.44;5080733;28;20212;-71
2023/03/13 03:17:34;;;;;;;13.80;2.30;;;;;;;11.81;70.56;99662.75;5083444;28;20229;-72
2023/03/13 03:20:01;;;;;;;9.43;2.37;;;;;;;11.78;71.02;99647.19;5080345;28;20206;-73
2023/03/13 03:22:29;;;;;;;9.23;1.93;;;;;;;11.72;71.61;99648.66;5078755;28;20883;-72
2023/03/13 03:24:56;;;;;;;11.00;2.80;;;;;;;11.78;71.71;99649.84;5078134;28;20216;-70
2023/03/13 03:27:24;;;;;;;10.50;2.30;;;;;;;11.73;72.18;99654.78;5081779;28;20987;-72
2023/03/13 03:29:52;;;;;;;8.03;1.80;;;;;;;11.73;72.67;99655.63;5080378;28;20237;-73
2023/03/13 03:32:21;;;;;;;9.87;1.90;;;;;;;11.69;73.49;99654.34;5083119;28;20210;-73
2023/03/13 03:34:49;;;;;;;8.90;1.97;;;;;;;11.68;74.29;99653.50;5081929;28;20281;-73
2023/03/13 03:37:16;;;;;;;11.13;2.30;;;;;;;11.70;74.69;99651.47;5081039;28;20241;-71
2023/03/13 03:39:44;;;;;;;9.07;1.90;;;;;;;11.69;75.73;99655.16;5080237;28;20580;-73
2023/03/13 03:42:12;;;;;;;11.30;1.87;;;;;;;11.74;77.21;99661.75;5081424;28;20220;-74
2023/03/13 03:44:41;;;;;;;9.57;1.97;;;;;;;11.75;77.97;99663.47;5080110;28;20224;-73
2023/03/13 03:47:09;;;;;;;12.80;2.23;;;;;;;11.68;81.95;99658.81;5081167;28;20220;-73
2023/03/13 03:49:38;;;;;;;5.33;1.50;;;;;;;11.68;83.44;99661.47;5078863;28;20237;-72
2023/03/13 03:52:06;;;;;;;5.77;1.37;;;;;;;11.67;84.66;99651.03;5080765;28;20554;-74
2023/03/13 03:54:34;;;;;;;7.07;1.50;;;;;;;11.66;85.47;99660.81;5078932;28;20220;-72
2023/03/13 03:57:02;;;;;;;9.97;1.93;;;;;;;11.73;85.51;99666.25;5082506;28;20218;-73
2023/03/13 03:59:30;;;;;;;7.57;1.40;;;;;;;11.73;85.86;99652.97;5077470;28;20213;-72
2023/03/13 04:01:58;;;;;;;7.30;1.63;;;;;;;11.70;86.22;99651.47;5079154;28;20218;-73
2023/03/13 04:04:26;;;;;;;7.33;1.90;;;;;;;11.58;87.40;99647.59;5079524;28;20282;-72
2023/03/13 04:06:55;;;;;;;11.73;2.00;;;;;;;11.55;88.11;99647.94;5081749;28;20293;-72
2023/03/13 04:09:23;;;;;;;11.90;2.00;;;;;;;11.57;88.54;99648.59;5084670;28;20229;-74
2023/03/13 04:11:50;;;;;;;6.43;1.33;;;;;;;11.58;88.57;99644.94;5087143;28;20595;-73
2023/03/13 04:14:18;;;;;;;9.23;1.73;;;;;;;11.55;89.35;99650.56;5088328;28;20218;-72
2023/03/13 04:16:46;;;;;;;7.87;1.70;;;;;;;11.55;89.51;99637.31;5092117;28;20199;-72
2023/03/13 04:19:14;;;;;;;6.43;1.50;;;;;;;11.59;89.44;99633.31;5092029;28;20212;-71
2023/03/13 04:21:41;;;;;;;4.73;1.30;;;;;;;11.54;90.16;99633.00;5092485;28;20206;-72
2023/03/13 04:24:10;;;;;;;4.80;1.70;;;;;;;11.51;90.92;99624.56;5092080;28;20230;-71
2023/03/13 04:26:38;;;;;;;6.03;1.33;;;;;;;11.48;91.28;99635.53;5091539;28;20280;-71
2023/03/13 04:29:06;;;;;;;8.97;1.50;;;;;;;11.52;90.98;99629.69;5093229;28;20206;-70
2023/03/13 04:31:33;;;;;;;5.77;1.40;;;;;;;11.55;90.98;99633.81;5094590;28;20213;-72
2023/03/13 04:34:01;;;;;;;6.70;1.60;;;;;;;11.60;90.28;99621.69;5096248;28;20305;-70
2023/03/13 04:36:29;;;;;;;9.60;1.77;;;;;;;11.60;90.20;99621.69;5095679;28;20299;-72
2023/03/13 04:38:56;;;;;;;10.80;1.53;;;;;;;11.52;90.94;99620.91;5090784;28;20235;-72
2023/03/13 04:41:25;;;;;;;6.20;1.40;;;;;;;11.52;90.70;99627.03;5092205;28;20299;-71
2023/03/13 04:43:53;;;;;;;5.10;1.53;;;;;;;11.53;90.76;99628.69;5095839;28;20330;-71
2023/03/13 04:46:21;;;;;;;5.40;1.67;;;;;;;11.54;90.78;99630.34;5094222;28;20212;-73
2023/03/13 04:48:49;;;;;;;7.93;2.20;;;;;;;11.47;91.31;99634.69;5096141;28;20205;-70
2023/03/13 04:51:16;;;;;;;8.07;1.90;;;;;;;11.47;92.01;99624.06;5092791;28;20232;-71
2023/03/13 04:53:44;;;;;;;7.90;1.37;;;;;;;11.51;91.36;99611.28;5092680;28;20267;-72
2023/03/13 04:56:21;;;;;;;4.83;1.33;;;;;;;11.55;91.00;99610.75;5096005;28;20232;-71
2023/03/13 04:59:09;;;;;;;8.73;1.57;;;;;;;11.52;91.46;99599.69;5095367;28;20263;-72
2023/03/13 05:01:37;;;;;;;10.13;1.57;;;;;;;11.51;91.87;99613.94;5091510;28;20270;-74
2023/03/13 05:04:05;;;;;;;9.40;1.87;;;;;;;11.51;92.21;99621.91;5089704;28;20232;-70
2023/03/13 05:06:33;;;;;;;8.00;1.67;;;;;;;11.56;92.06;99612.41;5091120;28;20232;-73
2023/03/13 05:09:00;;;;;;;8.00;1.50;;;;;;;11.54;92.56;99603.78;5091898;28;20206;-73
2023/03/13 05:11:29;;;;;;;5.17;1.47;;;;;;;11.59;92.14;99603.28;5089280;28;20690;-71
2023/03/13 05:13:56;;;;;;;4.37;1.47;;;;;;;11.63;92.08;99599.25;5093035;28;20217;-73
2023/03/13 05:16:25;;;;;;;5.57;1.40;;;;;;;11.67;91.94;99582.81;5090975;28;20261;-72
2023/03/13 05:18:53;;;;;;;5.67;1.50;;;;;;;11.65;92.42;99595.44;5094426;28;20276;-73
2023/03/13 05:21:21;;;;;;;6.20;1.63;;;;;;;11.66;92.32;99585.63;5091615;28;20336;-71
2023/03/13 05:23:48;;;;;;;5.83;1.63;;;;;;;11.62;93.44;99577.19;5091705;28;20197;-72
2023/03/13 05:26:16;;;;;;;4.43;1.37;;;;;;;11.73;92.63;99569.81;5091328;28;20212;-71
2023/03/13 05:28:44;;;;;;;7.77;1.80;;;;;;;11.72;92.64;99578.78;5090124;28;20205;-71
2023/03/13 05:31:11;;;;;;;3.57;1.40;;;;;;;11.68;93.06;99568.53;5090424;28;20226;-71
2023/03/13 05:33:41;;;;;;;4.23;1.33;;;;;;;11.75;93.25;99562.53;5089858;28;20236;-72
2023/03/13 05:36:09;;;;;;;6.77;1.10;;;;;;;11.82;92.81;99572.28;5089172;28;20241;-73
2023/03/13 05:38:37;;;;;;;5.87;1.60;;;;;;;11.86;92.72;99575.41;5089965;28;20215;-72
2023/03/13 05:41:04;;;;;;;4.67;1.20;;;;;;;12.00;92.32;99571.97;5085243;28;22217;-73
2023/03/13 05:43:32;;;;;;;4.40;1.00;;;;;;;12.06;92.38;99555.28;5089355;28;20438;-74
2023/03/13 05:46:00;;;;;;;4.07;1.27;;;;;;;12.07;92.21;99562.25;5090276;28;20205;-72
2023/03/13 05:48:28;;;;;;;3.27;1.40;;;;;;;12.12;92.12;99549.28;5088861;28;20220;-72
2023/03/13 05:50:58;;;;;;;6.70;1.40;;;;;;;12.18;91.61;99547.72;5088167;28;20725;-71
2023/03/13 05:53:26;;;;;;;2.90;1.13;;;;;;;12.28;91.59;99538.47;5088809;28;20206;-71
2023/03/13 05:55:53;;;;;;;3.83;1.43;;;;;;;12.24;91.62;99545.16;5095765;28;20217;-71
2023/03/13 05:58:21;;;;;;;5.70;1.10;;;;;;;12.30;91.40;99543.63;5097322;28;20220;-73
2023/03/13 06:00:49;;;;;;;6.23;1.40;;;;;;;12.34;91.20;99537.75;5096367;28;20210;-72
2023/03/13 06:03:16;;;;;;;2.73;1.10;;;;;;;12.43;90.60;99534.00;5095675;28;20229;-71
2023/03/13 06:05:44;;;;;;;3.87;1.23;;;;;;;12.38;91.34;99547.03;5097846;28;20220;-72
2023/03/13 06:08:13;;;;;;;4.07;1.60;;;;;;;12.44;91.46;99535.66;5098370;28;20182;-73
2023/03/13 06:10:41;;;;;;;2.93;1.17;;;;;;;12.52;91.05;99536.56;5098675;28;20229;-70
2023/03/13 06:13:09;;;;;;;3.23;1.00;;;;;;;12.45;91.91;99544.47;5102252;28;20217;-70
2023/03/13 06:15:51;;;;;;;2.67;1.00;;;;;;;12.49;91.98;99542.28;5102461;28;20206;-70
2023/03/13 06:18:18;;;;;;;2.63;1.07;;;;;;;12.54;91.28;99543.38;5099537;28;20259;-70
2023/03/13 06:20:47;;;;;;;1.50;0.73;;;;;;;12.65;91.51;99545.56;5093325;28;20203;-71
2023/03/13 06:23:17;;;;;;;3.00;1.00;;;;;;;12.67;91.15;99551.50;5098018;28;20219;-70
2023/03/13 06:25:47;;;;;;;2.87;0.70;;;;;;;12.69;91.31;99551.34;5095022;28;20207;-71
2023/03/13 06:28:15;;;;;;;2.07;0.60;;;;;;;12.74;90.67;99520.53;5091886;28;20221;-70
2023/03/13 06:30:42;;;;;;;2.67;0.60;;;;;;;12.80;90.72;99530.41;5092425;28;20234;-72
2023/03/13 06:33:10;;;;;;;1.40;0.70;;;;;;;12.91;90.27;99522.97;5096414;28;20297;-73
2023/03/13 06:35:40;;;;;;;1.80;0.60;;;;;;;12.93;89.60;99528.94;5093086;28;20215;-71
2023/03/13 06:38:24;;;;;;;1.77;0.63;;;;;;;13.06;88.77;99518.44;5092954;28;20210;-72
2023/03/13 06:40:52;;;;;;;1.80;0.60;;;;;;;13.08;88.92;99519.09;5097606;28;20253;-72
2023/03/13 06:43:20;;;;;;;2.07;0.50;;;;;;;13.12;88.21;99520.34;5098989;28;20196;-72
2023/03/13 06:45:48;;;;;;;1.30;0.40;;;;;;;13.10;88.50;99522.41;5094907;28;20211;-70
2023/03/13 06:48:16;;;;;;;2.87;0.80;;;;;;;13.15;88.27;99510.19;5099255;28;20222;-70
2023/03/13 06:50:44;;;;;;;0.93;0.57;;;;;;;13.26;87.94;99506.22;5099560;28;20245;-72
2023/03/13 06:53:15;;;;;;;1.23;0.57;;;;;;;13.19;87.92;99508.78;5100679;28;20798;-72
2023/03/13 06:55:45;;;;;;;1.57;0.60;;;;;;;13.27;87.70;99504.41;5096499;28;20192;-70
2023/03/13 06:58:13;;;;;;;1.70;0.50;;;;;;;13.29;87.59;99510.34;5097120;28;20725;-73
2023/03/13 07:00:58;;;;;;;1.63;0.60;;;;;;;13.30;87.46;99494.19;5079187;28;21143;-67
2023/03/13 07:03:26;;;;;;;1.87;0.53;;;;;;;13.37;87.42;99488.94;5073404;28;20211;-68
2023/03/13 07:05:56;;;;;;;1.13;0.50;;;;;;;13.32;87.53;99488.66;5074561;28;20266;-67
2023/03/13 07:08:25;;;;;;;1.07;0.47;;;;;;;13.41;86.52;99509.66;5074723;28;21188;-68
2023/03/13 07:10:58;;;;;;;1.33;0.30;;;;;;;13.42;86.90;99505.16;5075163;28;20231;-69
2023/03/13 07:13:25;;;;;;;1.93;0.50;;;;;;;13.47;86.17;99508.06;5075833;28;20216;-69
2023/03/13 07:15:53;;;;;;;2.03;0.30;;;;;;;13.46;86.24;99511.72;5076771;28;20219;-66
2023/03/13 07:18:23;;;;;;;0.90;0.47;;;;;;;13.51;86.28;99525.31;5073100;28;20212;-70
2023/03/13 07:20:54;;;;;;;0.67;0.30;;;;;;;13.56;85.89;99528.22;5074815;28;20802;-68
2023/03/13 07:23:22;;;;;;;0.80;0.50;;;;;;;13.64;85.20;99511.28;5074800;28;20211;-68
2023/03/13 07:25:56;;;;;;;1.33;0.40;;;;;;;13.70;84.67;99530.03;5078059;28;20204;-68
2023/03/13 07:28:24;;;;;;;1.93;0.60;;;;;;;13.83;83.85;99514.13;5076179;28;20328;-67
2023/03/13 07:30:52;;;;;;;2.87;0.73;;;;;;;13.82;83.73;99533.81;5074783;28;20213;-69
2023/03/13 07:33:20;;;;;;;1.80;0.57;;;;;;;13.87;83.75;99528.75;5077886;28;20213;-67
2023/03/13 07:35:49;;;;;;;1.40;0.77;;;;;;;13.87;83.37;99518.09;5075545;28;20625;-69
2023/03/13 07:38:17;;;;;;;1.83;0.70;;;;;;;13.91;83.24;99522.00;5076391;28;20213;-70
2023/03/13 07:40:50;;;;;;;1.87;0.60;;;;;;;13.87;83.18;99519.91;5073433;28;20209;-69
2023/03/13 07:43:19;;;;;;;3.23;0.80;;;;;;;13.90;83.02;99531.00;5076122;28;20206;-68
2023/03/13 07:45:54;;;;;;;2.67;1.00;;;;;;;13.92;82.51;99531.66;5077295;28;20617;-68
2023/03/13 07:48:22;;;;;;;3.60;0.97;;;;;;;13.98;82.20;99535.41;5077160;28;20570;-72
2023/03/13 07:50:50;;;;;;;3.40;1.00;;;;;;;14.01;81.92;99526.16;5076582;28;20671;-68
2023/03/13 07:53:20;;;;;;;2.40;1.20;;;;;;;14.01;81.52;99536.84;5075880;28;20928;-69
2023/03/13 07:55:56;;;;;;;4.50;1.20;;;;;;;14.05;81.37;99538.94;5077033;28;20224;-69
2023/03/13 07:58:27;;;;;;;3.03;1.37;;;;;;;14.11;81.05;99534.66;5075022;28;20208;-69
2023/03/13 08:00:55;;;;;;;1.97;0.77;;;;;;;14.13;80.96;99535.31;5078442;28;20206;-69
2023/03/13 08:03:23;;;;;;;1.40;0.80;;;;;;;14.15;81.36;99533.28;5076280;28;20210;-69
2023/03/13 08:05:58;;;;;;;2.67;1.30;;;;;;;14.20;80.90;99523.66;5076784;28;20719;-68
2023/03/13 08:08:26;;;;;;;3.60;0.90;;;;;;;14.25;80.83;99529.22;5076532;28;20220;-68
2023/03/13 08:10:53;;;;;;;2.63;1.20;;;;;;;14.21;80.92;99532.50;5077179;28;20217;-69
2023/03/13 08:13:21;;;;;;;3.70;0.90;;;;;;;14.19;81.35;99535.34;5074437;28;20240;-67
2023/03/13 08:15:50;;;;;;;2.80;1.20;;;;;;;14.28;81.01;99536.03;5074482;28;20205;-69
2023/03/13 08:18:18;;;;;;;3.60;1.00;;;;;;;14.31;80.21;99543.66;5074175;28;20293;-68
2023/03/13 08:20:46;;;;;;;3.47;1.17;;;;;;;14.33;80.63;99546.94;5068611;28;20218;-66
2023/03/13 08:23:13;;;;;;;2.17;1.00;;;;;;;14.35;80.50;99555.56;5076336;28;20203;-67
2023/03/13 08:25:41;;;;;;;2.60;1.10;;;;;;;14.38;80.16;99551.69;5074901;28;20230;-68
2023/03/13 08:28:10;;;;;;;2.57;1.00;;;;;;;14.44;80.24;99556.25;5075016;28;20210;-68
2023/03/13 08:30:40;;;;;;;3.77;1.23;;;;;;;14.37;80.34;99552.69;5078012;28;20225;-69
2023/03/13 08:33:09;;;;;;;4.87;1.13;;;;;;;14.43;79.67;99557.28;5076616;28;20224;-68
2023/03/13 08:35:40;;;;;;;5.40;1.40;;;;;;;14.42;79.96;99556.47;5074633;28;21529;-67
2023/03/13 08:38:08;;;;;;;2.80;1.13;;;;;;;14.45;79.86;99566.75;5058567;28;20218;-69
2023/03/13 08:40:36;;;;;;;3.90;1.27;;;;;;;14.44;79.77;99559.75;5055619;28;20216;-68
2023/03/13 08:43:03;;;;;;;3.23;1.03;;;;;;;14.40;79.85;99558.50;5053302;28;20282;-68
2023/03/13 08:45:31;;;;;;;2.90;1.17;;;;;;;14.46;79.94;99571.06;5053950;28;20204;-70
2023/03/13 08:47:59;;;;;;;3.33;1.30;;;;;;;14.43;79.75;99574.09;5057056;28;20199;-68
2023/03/13 08:50:28;;;;;;;5.03;1.50;;;;;;;14.40;80.24;99563.84;5054605;28;20220;-68
2023/03/13 08:52:56;;;;;;;5.63;1.60;;;;;;;14.39;80.37;99567.53;5055946;28;20230;-68
2023/03/13 08:55:24;;;;;;;3.73;1.37;;;;;;;14.43;80.23;99574.09;5058170;28;20556;-70
2023/03/13 08:57:53;;;;;;;5.13;1.20;;;;;;;14.40;80.32;99574.50;5055529;28;20226;-68
2023/03/13 09:00:21;;;;;;;4.10;1.10;;;;;;;14.44;80.50;99569.59;5053740;28;20227;-69
2023/03/13 09:02:48;;;;;;;5.63;1.50;;;;;;;14.47;79.49;99563.88;5054171;28;20215;-68
2023/03/13 09:05:16;;;;;;;4.13;1.40;;;;;;;14.49;79.99;99568.00;5057595;28;20319;-69
2023/03/13 09:07:45;;;;;;;2.63;1.10;;;;;;;14.52;79.59;99572.94;5057387;28;20243;-69
2023/03/13 09:10:13;;;;;;;4.63;2.27;;;;;;;14.51;79.47;99565.16;5053378;28;20585;-71
2023/03/13 09:12:41;;;;;;;3.43;1.37;;;;;;;14.47;79.76;99570.03;5054183;28;20245;-72
2023/03/13 09:15:10;;;;;;;3.80;1.50;;;;;;;14.51;79.55;99559.81;5054130;28;20222;-71
2023/03/13 09:17:37;;;;;;;3.43;1.23;;;;;;;14.51;79.54;99565.16;5054767;28;20247;-70
2023/03/13 09:20:07;;;;;;;3.90;1.40;;;;;;;14.52;79.58;99559.59;5055964;28;20208;-68
2023/03/13 09:22:35;;;;;;;3.80;1.40;;;;;;;14.52;79.46;99548.94;5057114;28;20212;-66
2023/03/13 09:25:04;;;;;;;3.27;1.30;;;;;;;14.62;79.07;99553.91;5057666;28;20206;-68
2023/03/13 09:27:32;;;;;;;4.03;1.30;;;;;;;14.63;78.98;99540.38;5055495;28;20616;-69
2023/03/13 09:30:00;;;;;;;4.97;1.80;;;;;;;14.74;78.74;99540.84;5060042;28;20210;-68
2023/03/13 09:32:27;;;;;;;3.43;1.17;;;;;;;14.80;78.41;99540.06;5059441;28;20511;-69
2023/03/13 09:34:55;;;;;;;4.03;1.50;;;;;;;14.87;77.60;99544.41;5061100;28;20273;-68
2023/03/13 09:37:23;;;;;;;3.47;1.40;;;;;;;14.91;78.11;99526.97;5074160;28;20293;-69
2023/03/13 09:39:51;;;;;;;5.37;1.40;;;;;;;15.02;77.28;99525.59;5078868;28;20220;-69
2023/03/13 09:42:22;;;;;;;3.23;1.53;;;;;;;15.08;77.36;99527.47;5080715;28;20214;-68
2023/03/13 09:44:55;;;;;;;3.97;1.47;;;;;;;15.13;77.01;99525.00;5080443;28;20575;-69
2023/03/13 09:47:26;;;;;;;2.97;1.83;;;;;;;15.27;76.95;99502.66;5077267;28;20215;-68
2023/03/13 09:49:57;;;;;;;4.27;1.63;;;;;;;15.53;76.25;99495.72;5079391;28;20230;-68
2023/03/13 09:52:27;;;;;;;4.10;1.53;;;;;;;16.96;71.35;99498.47;5081468;28;20694;-68
2023/03/13 09:54:59;;;;;;;5.33;1.47;;;;;;;19.37;61.70;99484.06;5078641;28;20226;-68
2023/03/13 09:57:34;;;;;;;8.27;1.87;;;;;;;20.74;56.02;99475.78;5079848;28;20616;-71
2023/03/13 10:00:11;;;;;;;3.43;1.30;;;;;;;22.58;49.90;99481.41;5079208;28;20206;-69
2023/03/13 10:02:40;;;;;;;2.53;1.20;;;;;;;23.46;47.71;99472.97;5078902;28;20217;-69
2023/03/13 10:05:13;;;;;;;3.53;1.20;;;;;;;24.60;44.10;99474.41;5079918;28;20206;-73
2023/03/13 10:07:48;;;;;;;4.47;0.90;;;;;;;25.03;42.83;99473.25;5077671;28;21245;-71
2023/03/13 10:10:19;;;;;;;3.35;1.30;;;;;;;23.96;43.85;99469.91;5076575;28;20210;-72
2023/03/13 10:12:52;;;;;;;4.32;1.77;;;;;;;22.26;47.63;99468.53;5079042;28;20235;-71
2023/03/13 10:15:37;;;;;;;3.53;1.45;;;;;;;20.96;51.44;99463.28;5078106;28;20584;-71
2023/03/13 10:18:15;;;;;;;5.85;1.70;;;;;;;20.09;53.85;99457.09;5081713;28;20233;-73
2023/03/13 10:20:45;;;;;;;6.07;2.00;;;;;;;19.51;55.60;99463.25;5080299;28;20207;-70
2023/03/13 10:23:19;;;;;;;4.27;2.10;;;;;;;19.06;57.60;99436.78;5082940;28;20901;-70
2023/03/13 10:25:46;;;;;;;3.27;1.90;;;;;;;18.91;58.08;99439.03;5076724;28;20830;-71
2023/03/13 10:28:19;;;;;;;4.33;1.73;;;;;;;19.48;57.83;99436.81;5077444;28;20583;-70
2023/03/13 10:30:50;;;;;;;3.73;1.87;;;;;;;21.60;52.86;99435.09;5075820;28;20206;-72
2023/03/13 10:33:23;;;;;;;4.03;1.50;;;;;;;26.10;41.35;99425.31;5074512;28;20649;-71
2023/03/13 10:36:06;;;;;;;4.72;1.48;;;;;;;28.42;35.67;99424.91;5073399;28;20215;-72
2023/03/13 10:38:45;;;;;;;3.53;1.40;;;;;;;30.98;31.97;99420.13;5082276;28;20215;-71
2023/03/13 10:41:23;;;;;;;2.15;1.13;;;;;;;33.48;28.64;99409.53;5078448;28;20202;-71
2023/03/13 10:43:54;;;;;;;2.78;1.08;;;;;;;31.96;29.67;99400.25;5079816;28;20276;-70
2023/03/13 10:46:26;;;;;;;5.60;1.48;;;;;;;29.78;32.20;99400.34;5080117;28;20198;-70
2023/03/13 10:48:55;;;;;;;6.13;1.30;;;;;;;28.88;33.93;99397.09;5081493;28;20242;-70
2023/03/13 10:51:24;;;;;;;2.85;1.10;;;;;;;27.40;36.05;99411.41;5081469;28;20214;-71
2023/03/13 10:53:52;;;;;;;3.97;1.30;;;;;;;26.26;37.59;99397.03;5077957;28;20225;-71
2023/03/13 10:56:28;;;;;;;5.15;1.52;;;;;;;25.09;40.11;99393.53;5076993;28;20299;-71
2023/03/13 10:58:57;;;;;;;1.77;1.08;;;;;;;24.08;42.13;99388.50;5077607;28;20206;-71
2023/03/13 11:01:27;;;;;;;4.32;1.27;;;;;;;23.87;42.81;99384.03;5077529;28;20290;-69
2023/03/13 11:03:59;;;;;;;3.90;1.15;;;;;;;23.78;43.12;99381.00;5077239;28;20574;-70
2023/03/13 11:06:29;;;;;;;3.85;1.40;;;;;;;23.93;43.05;99377.56;5079982;28;20231;-71
2023/03/13 11:09:04;;;;;;;2.45;1.20;;;;;;;23.19;44.11;99382.94;5076666;28;20207;-71
2023/03/13 11:11:44;;;;;;;2.75;1.30;;;;;;;22.08;46.56;99377.81;5077361;28;20481;-71
2023/03/13 11:14:19;;;;;;;5.32;1.20;;;;;;;21.25;48.96;99369.78;5077433;28;20245;-71
2023/03/13 11:16:49;;;;;;;3.45;1.40;;;;;;;20.97;50.19;99359.84;5078483;28;20215;-70
2023/03/13 11:19:29;;;;;;;3.50;1.27;;;;;;;21.11;49.93;99353.06;5078191;28;20207;-71
2023/03/13 11:22:07;;;;;;;4.10;1.67;;;;;;;21.08;50.38;99352.75;5074744;28;20550;-71
2023/03/13 11:24:44;;;;;;;3.03;1.50;;;;;;;21.35;49.70;99333.03;5076545;28;20807;-71
2023/03/13 11:27:24;;;;;;;4.97;1.80;;;;;;;22.64;47.68;99329.09;5075400;28;20210;-71
2023/03/13 11:30:04;;;;;;;4.85;1.77;;;;;;;25.23;41.72;99312.44;5076132;28;20207;-71
2023/03/13 11:32:41;;;;;;;3.65;1.38;;;;;;;26.76;38.34;99316.31;5077094;28;20210;-71
2023/03/13 11:35:23;;;;;;;3.38;1.63;;;;;;;26.72;38.70;99309.84;5077678;28;20247;-72
2023/03/13 11:37:55;;;;;;;3.05;1.60;;;;;;;25.74;39.40;99302.34;5078201;28;20296;-70
2023/03/13 11:40:31;;;;;;;5.05;1.67;;;;;;;23.98;43.16;99297.19;5076288;28;20219;-71
2023/03/13 11:43:16;;;;;;;4.72;1.60;;;;;;;23.42;44.60;99289.78;5075161;28;20207;-73